首页
METAR-TAF:

METAR-TAF

机场 :

Moody Air Force Base

Valdosta, 喬治亞, 美国

纬度: 30-58N, 经度: 083-12W, 海拔: 71米

当前天气观测

该预报发布于55分钟前的06:56 UTC
静风
温度 6°C
湿度 93%
气压 1023 hPa
能見度: 16.1公里
天空无云

METAR: KVAD 210656Z AUTO 00000KT 10SM CLR 06/05 A3021 RMK AO2 SLP232 T00550054 $

时间: 02:51 (07:51 UTC)

预报

该预报发布于6小时和51分钟前的01:00 UTC
预报有效从21日的 01点(UTC)到 22日的 07点(UTC)
风速5节,风向北转东北
能见度10公里或以上
天空无云
成为
从 21日的 04点(UTC)到 21日的 05点(UTC)
风速5节,风向东转东北
能见度10公里或以上
少量云层高于20000英尺
成为
从 21日的 16点(UTC)到 21日的 17点(UTC)
风速5节,风向东转东南
能见度10公里或以上
天空无云
成为
从 21日的 20点(UTC)到 21日的 21点(UTC)
风速3节,风向南转南东
能见度10公里或以上
少量云层高于22000英尺

TAF: KVAD 210100Z 2101/2207 03005KT 9999 SKC QNH3019INS BECMG 2104/2105 06005KT 9999 FEW200 QNH3021INS BECMG 2116/2117 11005KT 9999 SKC QNH3018INS BECMG 2120/2121 15003KT 9999 FEW220 QNH3016INS TX22/2119Z TN06/2107Z

超过4000个机场的气象观测和天气预报(METAR&TAF报告)。

可查询的气象台以黄色和红色小点在地图上表示。

将鼠标移到小点上方,可查看气象台名称。

然后点击查看天气观测和预报。

如需切换地图:点击带黑十字的绿色按钮放大地图;点击带横线的绿色按钮缩小地图;或者点击绿色箭头查看邻近地区的地图。


METAR-TAF: